createdAt,value
2018-03-15T00:00:12.796Z,12.97
2018-03-15T00:02:40.468Z,14.83
2018-03-15T00:05:08.158Z,18.40
2018-03-15T00:07:35.787Z,18.33
2018-03-15T00:10:03.492Z,16.07
2018-03-15T00:12:31.131Z,15.77
2018-03-15T00:14:59.524Z,18.67
2018-03-15T00:17:27.232Z,17.73
2018-03-15T00:19:54.861Z,15.23
2018-03-15T00:22:23.307Z,17.40
2018-03-15T00:24:50.943Z,15.70
2018-03-15T00:27:18.606Z,13.03
2018-03-15T00:29:46.767Z,13.23
2018-03-15T00:32:14.384Z,13.80
2018-03-15T00:34:42.080Z,13.10
2018-03-15T00:40:21.907Z,14.77
2018-03-15T00:42:49.552Z,13.03
2018-03-15T00:45:17.984Z,15.13
2018-03-15T00:47:45.584Z,12.53
2018-03-15T00:50:13.250Z,15.60
2018-03-15T00:52:40.931Z,16.90
2018-03-15T00:55:08.556Z,13.27
2018-03-15T00:57:36.223Z,16.20
2018-03-15T01:00:03.915Z,13.73
2018-03-15T01:02:32.368Z,14.80
2018-03-15T01:04:59.987Z,13.77
2018-03-15T01:07:27.667Z,16.13
2018-03-15T01:09:55.335Z,14.53
2018-03-15T01:12:23.744Z,14.90
2018-03-15T01:14:52.284Z,15.47
2018-03-15T01:17:19.914Z,13.90
2018-03-15T01:19:47.595Z,17.03
2018-03-15T01:22:15.225Z,17.50
2018-03-15T01:24:42.923Z,16.57
2018-03-15T01:27:10.563Z,17.23
2018-03-15T01:29:38.210Z,14.40
2018-03-15T01:32:05.859Z,15.37
2018-03-15T01:34:34.255Z,15.00
2018-03-15T01:37:02.734Z,18.20
2018-03-15T01:39:30.384Z,15.90
2018-03-15T01:41:58.024Z,16.00
2018-03-15T01:44:25.679Z,17.03
2018-03-15T01:46:53.308Z,14.17
2018-03-15T01:49:21.727Z,15.23
2018-03-15T01:51:49.378Z,15.63
2018-03-15T01:54:17.044Z,14.63
2018-03-15T01:56:44.700Z,14.47
2018-03-15T01:59:12.501Z,14.33
2018-03-15T02:01:40.015Z,18.27
2018-03-15T02:04:07.706Z,13.30
2018-03-15T02:06:36.903Z,13.97
2018-03-15T02:09:04.606Z,17.70
2018-03-15T02:11:32.250Z,17.03
2018-03-15T02:13:59.896Z,15.00
2018-03-15T02:16:27.542Z,13.50
2018-03-15T02:18:55.147Z,14.13
2018-03-15T02:21:22.787Z,15.77
2018-03-15T02:23:50.390Z,14.10
2018-03-15T02:26:18.060Z,16.47
2018-03-15T02:28:45.733Z,14.17
2018-03-15T02:31:14.123Z,14.43
2018-03-15T02:33:42.571Z,12.93
2018-03-15T02:36:10.214Z,14.77
2018-03-15T02:38:37.855Z,15.87
2018-03-15T02:41:05.491Z,14.00
2018-03-15T02:43:33.932Z,14.40
2018-03-15T02:46:01.586Z,14.47
2018-03-15T02:48:30.036Z,13.37
2018-03-15T02:50:58.418Z,13.33
2018-03-15T02:53:26.089Z,14.17
2018-03-15T02:55:54.482Z,13.10
2018-03-15T02:58:22.117Z,13.37
2018-03-15T03:00:49.829Z,14.20
2018-03-15T03:03:17.467Z,13.03
2018-03-15T03:05:45.894Z,12.90
2018-03-15T03:08:13.501Z,13.67
2018-03-15T03:10:41.193Z,14.43
2018-03-15T03:13:08.835Z,14.40
2018-03-15T03:15:36.516Z,14.77
2018-03-15T03:18:04.163Z,14.23
2018-03-15T03:20:31.823Z,13.77
2018-03-15T03:22:59.467Z,13.93
2018-03-15T03:25:27.892Z,12.27
2018-03-15T03:27:55.606Z,13.80
2018-03-15T03:30:23.222Z,14.53
2018-03-15T03:32:50.890Z,15.27
2018-03-15T03:35:18.534Z,14.33
2018-03-15T03:37:46.191Z,13.50
2018-03-15T03:40:13.866Z,11.50
2018-03-15T03:42:41.514Z,12.77
2018-03-15T03:45:09.188Z,13.57
2018-03-15T03:47:36.819Z,12.60
2018-03-15T03:50:04.540Z,14.20
2018-03-15T03:52:32.938Z,13.57
2018-03-15T03:55:01.339Z,13.50
2018-03-15T03:57:29.755Z,13.97
2018-03-15T03:59:58.154Z,16.20
2018-03-15T04:02:26.618Z,15.13
2018-03-15T04:04:54.285Z,14.20
2018-03-15T04:07:21.952Z,13.27
2018-03-15T04:09:49.560Z,13.17
2018-03-15T04:12:17.271Z,14.00
2018-03-15T04:14:44.898Z,12.23
2018-03-15T04:17:12.614Z,13.00
2018-03-15T04:19:41.090Z,14.67
2018-03-15T04:22:09.487Z,13.73
2018-03-15T04:24:37.920Z,15.80
2018-03-15T04:27:05.544Z,14.30
2018-03-15T04:29:33.225Z,12.10
2018-03-15T04:32:00.880Z,13.77
2018-03-15T04:34:28.479Z,13.13
2018-03-15T04:36:56.157Z,12.07
2018-03-15T04:39:23.771Z,12.47
2018-03-15T04:41:51.440Z,13.97
2018-03-15T04:44:19.084Z,18.53
2018-03-15T04:46:46.760Z,14.77
2018-03-15T04:49:14.452Z,16.87
2018-03-15T04:51:42.119Z,15.67
2018-03-15T04:54:09.789Z,17.23
2018-03-15T04:56:37.427Z,16.33
2018-03-15T04:59:05.119Z,18.37
2018-03-15T05:01:33.518Z,17.50
2018-03-15T05:04:01.168Z,15.33
2018-03-15T05:06:28.843Z,15.50
2018-03-15T05:08:57.266Z,19.63
2018-03-15T05:11:24.944Z,18.30
2018-03-15T05:13:52.627Z,15.43
2018-03-15T05:16:21.637Z,16.47
2018-03-15T05:18:50.092Z,16.07
2018-03-15T05:21:17.747Z,16.17
2018-03-15T05:23:46.187Z,16.10
2018-03-15T05:26:13.832Z,15.97
2018-03-15T05:28:41.490Z,17.20
2018-03-15T05:31:09.249Z,14.50
2018-03-15T05:33:37.644Z,16.43
2018-03-15T05:36:06.046Z,16.00
2018-03-15T05:38:33.696Z,14.83
2018-03-15T05:41:01.355Z,16.70
2018-03-15T05:43:29.054Z,19.13
2018-03-15T05:45:56.690Z,16.40
2018-03-15T05:48:25.107Z,15.17
2018-03-15T05:50:52.772Z,17.57
2018-03-15T05:53:21.158Z,21.57
2018-03-15T05:55:48.823Z,16.17
2018-03-15T05:58:16.524Z,16.83
2018-03-15T06:00:44.175Z,19.03
2018-03-15T06:03:11.843Z,18.00
2018-03-15T06:05:39.542Z,19.77
2018-03-15T06:08:07.205Z,17.63
2018-03-15T06:10:35.579Z,18.00
2018-03-15T06:13:03.270Z,17.93
2018-03-15T06:15:30.894Z,20.83
2018-03-15T06:17:59.301Z,21.17
2018-03-15T06:20:27.696Z,18.50
2018-03-15T06:22:56.116Z,18.83
2018-03-15T06:25:23.756Z,19.70
2018-03-15T06:27:52.418Z,21.33
2018-03-15T06:30:20.848Z,20.43
2018-03-15T06:32:48.507Z,18.33
2018-03-15T06:35:16.956Z,18.47
2018-03-15T06:37:44.954Z,18.90
2018-03-15T06:48:54.787Z,25.33
2018-03-15T06:51:22.468Z,23.37
2018-03-15T06:53:50.115Z,21.00
2018-03-15T06:56:18.590Z,22.20
2018-03-15T06:58:46.231Z,22.37
2018-03-15T07:01:14.672Z,24.30
2018-03-15T07:03:42.320Z,18.23
2018-03-15T07:06:10.752Z,24.10
2018-03-15T07:08:38.436Z,21.97
2018-03-15T07:11:08.056Z,18.93
2018-03-15T07:13:35.714Z,17.30
2018-03-15T07:16:03.507Z,14.60
2018-03-15T07:18:31.204Z,15.03
2018-03-15T07:20:59.640Z,15.07
2018-03-15T07:23:27.304Z,15.97
2018-03-15T07:25:55.700Z,16.13
2018-03-15T07:34:26.453Z,13.93
2018-03-15T07:36:54.874Z,15.10
2018-03-15T07:39:23.385Z,12.57
2018-03-15T07:44:43.937Z,14.20
2018-03-15T07:47:12.351Z,11.40
2018-03-15T07:49:39.992Z,10.90
2018-03-15T07:52:07.663Z,11.03
2018-03-15T07:54:45.109Z,11.80
2018-03-15T07:57:12.803Z,12.57
2018-03-15T07:59:40.459Z,11.00
2018-03-15T08:02:08.124Z,11.97
2018-03-15T08:04:35.801Z,12.47
2018-03-15T08:07:04.172Z,10.77
2018-03-15T08:09:31.864Z,12.10
2018-03-15T08:11:59.494Z,10.37
2018-03-15T08:14:46.763Z,9.67
2018-03-15T08:17:14.429Z,11.83
2018-03-15T08:19:42.087Z,11.83
2018-03-15T08:22:09.740Z,9.97
2018-03-15T08:24:37.389Z,9.17
2018-03-15T08:27:05.051Z,12.63
2018-03-15T08:29:32.699Z,9.27
2018-03-15T08:32:00.367Z,9.10
2018-03-15T08:34:28.048Z,9.83
2018-03-15T08:36:55.674Z,9.43
2018-03-15T08:39:23.347Z,8.77
2018-03-15T08:41:50.985Z,7.20
2018-03-15T08:44:18.687Z,8.40
2018-03-15T08:46:46.347Z,8.20
2018-03-15T08:49:14.776Z,9.47
2018-03-15T08:51:42.446Z,6.80
2018-03-15T08:54:10.125Z,7.93
2018-03-15T08:56:37.818Z,6.87
2018-03-15T08:59:05.460Z,6.30
2018-03-15T09:01:33.152Z,7.07
2018-03-15T09:04:00.775Z,6.03
2018-03-15T09:06:29.239Z,7.97
2018-03-15T09:08:57.639Z,6.30
2018-03-15T09:11:25.287Z,5.80
2018-03-15T09:13:52.936Z,5.97
2018-03-15T09:16:20.575Z,6.47
2018-03-15T09:18:48.235Z,6.43
2018-03-15T09:21:16.623Z,6.07
2018-03-15T09:23:45.041Z,6.43
2018-03-15T09:26:13.452Z,6.57
2018-03-15T09:28:41.105Z,6.00
2018-03-15T09:31:08.764Z,5.03
2018-03-15T09:33:36.423Z,5.90
2018-03-15T09:36:04.116Z,5.70
2018-03-15T09:38:31.779Z,6.10
2018-03-15T09:40:59.424Z,5.73
2018-03-15T09:43:27.128Z,5.67
2018-03-15T09:45:55.674Z,5.07
2018-03-15T09:48:23.303Z,5.40
2018-03-15T09:50:50.951Z,5.70
2018-03-15T09:53:18.630Z,5.70
2018-03-15T09:55:46.299Z,5.13
2018-03-15T09:58:14.401Z,5.47
2018-03-15T10:00:42.128Z,6.17
2018-03-15T10:03:09.784Z,5.43
2018-03-15T10:05:37.484Z,5.80
2018-03-15T10:08:05.131Z,6.50
2018-03-15T10:10:33.621Z,6.40
2018-03-15T10:13:01.280Z,6.27
2018-03-15T10:15:28.943Z,5.30
2018-03-15T10:17:56.611Z,6.47
2018-03-15T10:20:24.313Z,5.03
2018-03-15T10:22:51.991Z,5.60
2018-03-15T10:25:26.388Z,6.70
2018-03-15T10:27:47.295Z,5.43
2018-03-15T10:30:14.980Z,6.20
2018-03-15T10:32:42.696Z,6.10
2018-03-15T10:35:16.036Z,5.10
2018-03-15T10:37:44.498Z,5.30
2018-03-15T10:40:12.206Z,6.77
2018-03-15T10:42:39.854Z,5.77
2018-03-15T10:45:07.588Z,5.40
2018-03-15T10:47:36.035Z,7.20
2018-03-15T10:50:03.740Z,5.30
2018-03-15T10:52:31.366Z,5.90
2018-03-15T10:54:59.027Z,6.67
2018-03-15T10:57:27.426Z,5.00
2018-03-15T10:59:55.144Z,5.00
2018-03-15T11:02:22.829Z,4.90
2018-03-15T11:04:56.168Z,8.10
2018-03-15T11:07:30.622Z,4.70
2018-03-15T11:09:59.116Z,5.37
2018-03-15T11:12:27.605Z,4.90
2018-03-15T11:14:55.261Z,4.77
2018-03-15T11:17:22.937Z,4.57
2018-03-15T11:19:50.597Z,4.70
2018-03-15T11:22:19.143Z,4.23
2018-03-15T11:24:46.835Z,4.40
2018-03-15T11:27:14.483Z,4.63
2018-03-15T11:29:42.140Z,4.30
2018-03-15T11:32:09.760Z,5.00
2018-03-15T11:34:37.460Z,4.90
2018-03-15T11:37:05.883Z,4.83
2018-03-15T11:39:33.536Z,16.10
2018-03-15T11:42:01.196Z,5.50
2018-03-15T11:44:28.878Z,4.87
2018-03-15T11:46:56.542Z,4.53
2018-03-15T11:49:24.220Z,5.00
2018-03-15T11:51:51.905Z,4.50
2018-03-15T11:54:19.591Z,4.27
2018-03-15T11:56:47.242Z,4.30
2018-03-15T11:59:14.919Z,4.07
2018-03-15T12:01:42.604Z,3.93
2018-03-15T12:04:10.338Z,4.00
2018-03-15T12:06:38.047Z,3.90
2018-03-15T12:09:05.702Z,3.77
2018-03-15T12:11:34.157Z,4.17
2018-03-15T12:14:01.795Z,4.00
2018-03-15T12:16:30.273Z,3.90
2018-03-15T12:18:57.924Z,4.10
2018-03-15T12:21:25.587Z,6.23
2018-03-15T12:23:54.132Z,4.50
2018-03-15T12:26:21.962Z,4.10
2018-03-15T12:28:49.724Z,4.10
2018-03-15T12:31:17.491Z,4.30
2018-03-15T12:33:45.563Z,4.43
2018-03-15T12:36:13.409Z,4.30
2018-03-15T12:38:41.217Z,4.00
2018-03-15T12:41:09.243Z,4.23
2018-03-15T12:43:36.927Z,4.70
2018-03-15T12:46:05.482Z,4.03
2018-03-15T12:48:33.224Z,3.67
2018-03-15T12:51:01.697Z,3.63
2018-03-15T12:53:30.288Z,3.50
2018-03-15T12:55:58.164Z,3.50
2018-03-15T12:58:25.935Z,4.17
2018-03-15T13:00:53.688Z,4.67
2018-03-15T13:03:21.994Z,4.93
2018-03-15T13:05:50.521Z,3.60
2018-03-15T13:08:18.265Z,3.67
2018-03-15T13:10:46.514Z,3.77
2018-03-15T13:13:14.288Z,4.20
2018-03-15T13:15:42.979Z,4.27
2018-03-15T13:18:11.150Z,5.70
2018-03-15T13:20:39.023Z,4.80
2018-03-15T13:23:06.873Z,3.80
2018-03-15T13:25:35.503Z,4.80
2018-03-15T13:28:03.286Z,4.73
2018-03-15T13:30:33.150Z,4.50
2018-03-15T13:33:01.636Z,4.20
2018-03-15T13:35:29.462Z,4.00
2018-03-15T13:37:57.213Z,4.67
2018-03-15T13:40:25.183Z,4.77
2018-03-15T13:42:52.916Z,4.50
2018-03-15T13:45:21.411Z,4.67
2018-03-15T13:47:49.317Z,5.27
2018-03-15T13:50:17.779Z,7.50
2018-03-15T13:52:45.400Z,5.10
2018-03-15T13:55:13.824Z,4.37
2018-03-15T13:57:42.428Z,4.90
2018-03-15T14:00:10.840Z,5.60
2018-03-15T14:02:39.242Z,7.03
2018-03-15T14:05:07.699Z,5.00
2018-03-15T14:07:35.360Z,5.13
2018-03-15T14:10:02.995Z,4.60
2018-03-15T14:12:30.643Z,5.33
2018-03-15T14:14:58.430Z,4.93
2018-03-15T14:17:26.173Z,5.97
2018-03-15T14:19:54.763Z,5.30
2018-03-15T14:22:22.543Z,5.23
2018-03-15T14:24:50.558Z,5.57
2018-03-15T14:27:19.358Z,5.13
2018-03-15T14:29:47.224Z,5.90
2018-03-15T14:32:15.096Z,6.07
2018-03-15T14:34:43.052Z,5.07
2018-03-15T14:37:10.834Z,5.27
2018-03-15T14:39:38.697Z,5.37
2018-03-15T14:42:06.508Z,4.97
2018-03-15T14:44:34.306Z,5.00
2018-03-15T14:47:02.132Z,5.40
2018-03-15T14:49:30.795Z,5.50
2018-03-15T14:51:58.491Z,4.57
2018-03-15T14:54:26.128Z,5.30
2018-03-15T14:56:53.809Z,5.40
2018-03-15T14:59:21.456Z,6.07
2018-03-15T15:01:50.358Z,5.13
2018-03-15T15:04:18.713Z,4.80
2018-03-15T15:06:47.166Z,5.50
2018-03-15T15:09:14.871Z,5.13
2018-03-15T15:11:42.508Z,5.47
2018-03-15T15:14:10.168Z,4.83
2018-03-15T15:16:38.572Z,5.17
2018-03-15T15:19:06.999Z,5.30
2018-03-15T15:21:34.840Z,5.77
2018-03-15T15:24:02.559Z,5.47
2018-03-15T15:26:30.956Z,5.23
2018-03-15T15:28:59.379Z,4.40
2018-03-15T15:31:26.980Z,5.30
2018-03-15T15:33:54.641Z,5.90
2018-03-15T15:36:23.043Z,5.03
2018-03-15T15:38:51.499Z,5.10
2018-03-15T15:41:19.559Z,5.83
2018-03-15T15:43:47.224Z,5.13
2018-03-15T15:46:15.655Z,5.77
2018-03-15T15:48:43.355Z,6.10
2018-03-15T15:51:10.995Z,5.13
2018-03-15T15:53:38.660Z,6.30
2018-03-15T15:56:06.321Z,5.57
2018-03-15T15:58:34.010Z,5.87
2018-03-15T16:01:01.637Z,6.00
2018-03-15T16:03:29.350Z,5.70
2018-03-15T16:05:57.776Z,5.80
2018-03-15T16:08:25.403Z,6.27
2018-03-15T16:10:53.114Z,7.03
2018-03-15T16:13:20.763Z,7.10
2018-03-15T16:15:48.473Z,6.33
2018-03-15T16:18:16.136Z,6.47
2018-03-15T16:32:19.844Z,6.27
2018-03-15T16:34:47.562Z,7.33
2018-03-15T16:37:15.216Z,5.97
2018-03-15T16:39:42.880Z,5.90
2018-03-15T16:42:11.267Z,6.90
2018-03-15T16:44:38.900Z,6.77
2018-03-15T16:47:06.507Z,6.20
2018-03-15T16:49:34.191Z,5.83
2018-03-15T16:52:01.859Z,6.70
2018-03-15T16:54:29.521Z,7.40
2018-03-15T16:56:57.173Z,7.37
2018-03-15T16:59:24.825Z,6.57
2018-03-15T17:01:52.487Z,6.20
2018-03-15T17:04:20.123Z,8.07
2018-03-15T17:06:47.775Z,8.07
2018-03-15T17:09:15.420Z,6.67
2018-03-15T17:11:43.052Z,6.67
2018-03-15T17:14:10.711Z,6.53
2018-03-15T17:16:39.136Z,6.50
2018-03-15T17:19:06.851Z,7.50
2018-03-15T17:21:34.480Z,6.27
2018-03-15T17:24:02.146Z,6.30
2018-03-15T17:26:29.809Z,6.57
2018-03-15T17:28:57.451Z,7.07
2018-03-15T17:31:25.439Z,6.40
2018-03-15T17:33:53.087Z,9.70
2018-03-15T17:36:20.735Z,6.60
2018-03-15T17:38:49.118Z,6.43
2018-03-15T17:41:16.780Z,7.30
2018-03-15T17:43:44.431Z,5.97
2018-03-15T17:46:12.108Z,7.40
2018-03-15T17:48:39.764Z,5.93
2018-03-15T17:51:07.391Z,7.63
2018-03-15T17:53:35.056Z,6.93
2018-03-15T17:56:03.465Z,7.67
2018-03-15T17:58:31.889Z,6.93
2018-03-15T18:00:59.536Z,6.23
2018-03-15T18:03:27.169Z,6.70
2018-03-15T18:05:54.804Z,6.27
2018-03-15T18:08:22.503Z,6.17
2018-03-15T18:10:50.816Z,6.70
2018-03-15T18:13:39.750Z,6.27
2018-03-15T18:16:07.374Z,7.40
2018-03-15T18:18:35.851Z,6.50
2018-03-15T18:21:03.594Z,6.90
2018-03-15T18:23:31.219Z,6.80
2018-03-15T18:25:58.875Z,6.90
2018-03-15T18:28:26.740Z,6.80
2018-03-15T18:30:54.444Z,8.33
2018-03-15T18:33:22.076Z,7.43
2018-03-15T18:35:49.722Z,7.00
2018-03-15T18:38:17.488Z,7.10
2018-03-15T18:40:45.144Z,6.90
2018-03-15T18:43:12.832Z,6.67
2018-03-15T18:45:40.472Z,7.77
2018-03-15T18:48:08.131Z,9.47
2018-03-15T18:50:35.787Z,8.00
2018-03-15T18:53:03.488Z,9.83
2018-03-15T18:55:31.139Z,7.47
2018-03-15T18:57:59.599Z,7.70
2018-03-15T19:00:27.255Z,6.90
2018-03-15T19:02:55.683Z,7.63
2018-03-15T19:05:23.325Z,7.17
2018-03-15T19:07:53.721Z,7.33
2018-03-15T19:10:21.368Z,8.80
2018-03-15T19:12:49.764Z,8.13
2018-03-15T19:15:17.415Z,7.67
2018-03-15T19:17:45.055Z,7.80
2018-03-15T19:20:13.451Z,8.03
2018-03-15T19:22:41.872Z,8.07
2018-03-15T19:25:10.279Z,8.07
2018-03-15T19:27:38.711Z,8.53
2018-03-15T19:30:06.375Z,6.83
2018-03-15T19:32:34.831Z,7.93
2018-03-15T19:35:02.493Z,7.83
2018-03-15T19:37:30.172Z,9.67
2018-03-15T19:39:57.853Z,7.83
2018-03-15T19:42:25.515Z,7.40
2018-03-15T19:44:53.252Z,7.47
2018-03-15T19:47:20.932Z,9.30
2018-03-15T19:49:48.622Z,9.53
2018-03-15T19:52:16.279Z,7.17
2018-03-15T19:54:44.678Z,8.43
2018-03-15T19:57:13.185Z,9.53
2018-03-15T19:59:41.633Z,8.27
2018-03-15T20:02:09.272Z,9.73
2018-03-15T20:04:36.931Z,8.13
2018-03-15T20:07:05.393Z,8.50
2018-03-15T20:09:33.020Z,10.13
2018-03-15T20:12:00.687Z,8.37
2018-03-15T20:14:28.486Z,9.57
2018-03-15T20:16:56.939Z,8.87
2018-03-15T20:19:25.352Z,8.77
2018-03-15T20:21:56.529Z,10.37
2018-03-15T20:24:30.064Z,9.83
2018-03-15T20:26:58.540Z,9.27
2018-03-15T20:29:26.193Z,9.73
2018-03-15T20:31:54.948Z,11.57
2018-03-15T20:34:22.659Z,9.43
2018-03-15T20:36:50.276Z,9.27
2018-03-15T20:39:23.660Z,9.33
2018-03-15T20:41:51.295Z,9.67
2018-03-15T20:44:18.949Z,8.43
2018-03-15T20:49:52.226Z,10.50
2018-03-15T20:52:19.826Z,10.27
2018-03-15T20:54:47.426Z,10.53
2018-03-15T20:57:14.998Z,10.07
2018-03-15T20:59:42.599Z,12.07
2018-03-15T21:02:10.176Z,9.60
2018-03-15T21:04:37.779Z,10.60
2018-03-15T21:07:05.400Z,10.57
2018-03-15T21:09:33.084Z,10.93
2018-03-15T21:12:00.724Z,10.70
2018-03-15T21:14:29.066Z,11.10
2018-03-15T21:16:56.657Z,9.27
2018-03-15T21:19:24.232Z,11.03
2018-03-15T21:21:51.841Z,10.73
2018-03-15T21:24:19.423Z,10.03
2018-03-15T21:26:47.088Z,11.93
2018-03-15T21:29:15.386Z,10.27
2018-03-15T21:31:42.991Z,11.23
2018-03-15T21:34:10.601Z,11.17
2018-03-15T21:36:38.171Z,9.63
2018-03-15T21:39:05.779Z,10.63
2018-03-15T21:41:33.358Z,11.07
2018-03-15T21:44:00.964Z,10.53
2018-03-15T21:46:28.936Z,11.23
2018-03-15T21:48:57.440Z,10.40
2018-03-15T21:51:25.131Z,10.67
2018-03-15T21:53:53.474Z,11.03
2018-03-15T21:56:21.078Z,11.67
2018-03-15T21:58:48.654Z,13.63
2018-03-15T22:01:17.538Z,11.23
2018-03-15T22:03:45.878Z,11.83
2018-03-15T22:20:59.010Z,12.90
2018-03-15T22:23:26.590Z,13.60
2018-03-15T22:25:54.166Z,12.73
2018-03-15T22:28:21.774Z,20.77
2018-03-15T22:30:49.350Z,20.53
2018-03-15T22:33:16.954Z,15.37
2018-03-15T22:35:44.547Z,15.07
2018-03-15T22:38:12.910Z,30.00
2018-03-15T22:40:40.486Z,21.00
2018-03-15T22:43:08.090Z,15.10
2018-03-15T22:45:35.686Z,15.43
2018-03-15T22:48:03.299Z,15.50
2018-03-15T22:50:31.666Z,13.70
2018-03-15T22:52:59.238Z,13.67
2018-03-15T22:55:26.838Z,15.23
2018-03-15T22:57:54.418Z,13.80
2018-03-15T23:00:22.022Z,14.77
2018-03-15T23:02:49.594Z,14.47
2018-03-15T23:05:17.205Z,14.23
2018-03-15T23:07:45.574Z,13.17
2018-03-15T23:10:13.149Z,12.13
2018-03-15T23:12:40.746Z,12.67
2018-03-15T23:15:08.321Z,13.97
2018-03-15T23:17:35.930Z,16.93
2018-03-15T23:20:03.531Z,14.10
2018-03-15T23:22:31.142Z,14.37
2018-03-15T23:24:59.480Z,15.37
2018-03-15T23:27:27.078Z,13.63
2018-03-15T23:29:54.719Z,15.10
2018-03-15T23:32:22.403Z,15.90
2018-03-15T23:34:50.771Z,15.77
2018-03-15T23:37:18.349Z,14.43
2018-03-15T23:39:45.947Z,16.07
2018-03-15T23:42:13.520Z,16.57
2018-03-15T23:44:41.127Z,15.87
2018-03-15T23:47:08.703Z,16.50
2018-03-15T23:49:36.311Z,17.27
2018-03-15T23:52:04.681Z,17.40
2018-03-15T23:54:32.254Z,19.20
2018-03-15T23:56:59.858Z,16.40
2018-03-15T23:59:27.431Z,16.93
